Time;durP1;ratioP1;P1;durP2;ratioP2;P2;SDS_P1;SDS_P2;PMS_P1;PMS_P2;Temp;Humidity;BMP_temperature;BMP_pressure;BME280_temperature;BME280_humidity;BME280_pressure;Samples;Min_cycle;Max_cycle;Signal;HPM_P1;HPM_P2
2022/04/11 00:00:08;;;;;;;3.80;2.50;;;;;;;;;;4975173;28;20453;-43
2022/04/11 00:02:34;;;;;;;4.23;2.83;;;;;;;;;;4977710;28;20420;-44
2022/04/11 00:05:00;;;;;;;6.47;2.73;;;;;;;;;;4974909;28;20775;-44
2022/04/11 00:07:26;;;;;;;3.53;2.60;;;;;;;;;;4975405;28;20549;-44
2022/04/11 00:09:52;;;;;;;4.60;2.80;;;;;;;;;;4974670;28;20967;-44
2022/04/11 00:12:18;;;;;;;5.73;3.30;;;;;;;;;;4977848;28;20995;-43
2022/04/11 00:14:44;;;;;;;4.43;2.87;;;;;;;;;;4974844;28;20505;-44
2022/04/11 00:17:10;;;;;;;5.33;3.10;;;;;;;;;;4976279;28;20454;-44
2022/04/11 00:19:36;;;;;;;5.57;3.27;;;;;;;;;;4974857;28;20452;-43
2022/04/11 00:22:03;;;;;;;4.10;2.67;;;;;;;;;;4978530;28;20877;-43
2022/04/11 00:24:29;;;;;;;3.37;2.50;;;;;;;;;;4979372;28;20949;-43
2022/04/11 00:26:55;;;;;;;3.80;2.60;;;;;;;;;;4972264;28;20417;-43
2022/04/11 00:29:21;;;;;;;6.17;3.00;;;;;;;;;;4979986;28;20427;-43
2022/04/11 00:31:47;;;;;;;5.17;2.50;;;;;;;;;;4976954;28;20430;-43
2022/04/11 00:34:13;;;;;;;4.57;2.80;;;;;;;;;;4974235;28;20436;-43
2022/04/11 00:36:39;;;;;;;5.33;3.10;;;;;;;;;;4974506;28;20486;-42
2022/04/11 00:39:05;;;;;;;3.10;2.70;;;;;;;;;;4981069;28;20462;-43
2022/04/11 00:41:31;;;;;;;3.93;2.67;;;;;;;;;;4974099;28;20934;-43
2022/04/11 00:43:57;;;;;;;4.67;2.67;;;;;;;;;;4976864;28;20428;-43
2022/04/11 00:46:23;;;;;;;4.20;2.90;;;;;;;;;;4975293;28;20427;-43
2022/04/11 00:48:49;;;;;;;5.73;3.20;;;;;;;;;;4977891;28;20864;-43
2022/04/11 00:51:21;;;;;;;5.13;2.73;;;;;;;;;;4978213;28;20460;-43
2022/04/11 00:53:47;;;;;;;5.40;3.30;;;;;;;;;;4977013;28;20554;-44
2022/04/11 00:56:14;;;;;;;5.07;3.00;;;;;;;;;;4977252;28;20428;-44
2022/04/11 00:58:41;;;;;;;4.80;3.20;;;;;;;;;;4979651;28;20434;-44
2022/04/11 01:01:07;;;;;;;4.50;3.03;;;;;;;;;;4977561;28;20516;-44
2022/04/11 01:03:34;;;;;;;5.00;3.40;;;;;;;;;;4978829;28;20495;-44
2022/04/11 01:06:00;;;;;;;6.97;3.00;;;;;;;;;;4977972;28;20470;-44
2022/04/11 01:08:26;;;;;;;6.93;3.80;;;;;;;;;;4977742;28;20440;-44
2022/04/11 01:10:53;;;;;;;5.77;3.40;;;;;;;;;;4975451;28;20550;-42
2022/04/11 01:13:19;;;;;;;8.10;3.50;;;;;;;;;;4985893;28;20442;-43
2022/04/11 01:16:05;;;;;;;6.90;3.80;;;;;;;;;;4978132;28;20482;-43
2022/04/11 01:18:35;;;;;;;10.40;3.43;;;;;;;;;;4976021;28;20837;-43
2022/04/11 01:21:01;;;;;;;8.53;3.63;;;;;;;;;;4976391;28;21354;-43
2022/04/11 01:23:27;;;;;;;6.03;3.47;;;;;;;;;;4977134;28;20759;-43
2022/04/11 01:25:54;;;;;;;8.47;3.60;;;;;;;;;;4979203;28;20432;-43
2022/04/11 01:28:21;;;;;;;7.80;3.87;;;;;;;;;;4971935;28;20494;-44
2022/04/11 01:30:47;;;;;;;6.67;3.80;;;;;;;;;;4976570;28;20549;-43
2022/04/11 01:33:14;;;;;;;7.37;4.40;;;;;;;;;;4975118;28;21201;-44
2022/04/11 01:35:41;;;;;;;11.33;4.90;;;;;;;;;;4978624;28;20439;-43
2022/04/11 01:38:07;;;;;;;13.50;5.33;;;;;;;;;;4972741;28;20556;-43
2022/04/11 01:40:34;;;;;;;16.23;6.00;;;;;;;;;;4973109;28;20895;-43
2022/04/11 01:43:00;;;;;;;15.70;6.30;;;;;;;;;;4980260;28;20432;-43
2022/04/11 01:45:26;;;;;;;16.87;5.70;;;;;;;;;;4970924;28;21118;-43
2022/04/11 01:47:52;;;;;;;18.63;6.80;;;;;;;;;;4972583;28;20515;-43
2022/04/11 01:50:18;;;;;;;18.30;6.13;;;;;;;;;;4973847;28;20510;-44
2022/04/11 01:52:44;;;;;;;11.07;5.77;;;;;;;;;;4977772;28;20427;-44
2022/04/11 01:55:10;;;;;;;14.20;5.13;;;;;;;;;;4977636;28;20428;-43
2022/04/11 01:57:36;;;;;;;11.60;5.50;;;;;;;;;;4975104;28;21024;-43
2022/04/11 02:00:03;;;;;;;11.13;5.57;;;;;;;;;;4974051;28;20524;-43
2022/04/11 02:02:29;;;;;;;9.60;5.00;;;;;;;;;;4976007;28;20436;-43
2022/04/11 02:04:55;;;;;;;11.40;4.40;;;;;;;;;;4975371;28;20428;-43
2022/04/11 02:07:21;;;;;;;8.23;4.50;;;;;;;;;;4974889;28;20673;-43
2022/04/11 02:09:47;;;;;;;5.93;4.40;;;;;;;;;;4974624;28;20651;-43
2022/04/11 02:12:13;;;;;;;6.20;4.20;;;;;;;;;;4978791;28;20436;-43
2022/04/11 02:14:39;;;;;;;6.53;4.17;;;;;;;;;;5010023;28;20439;-43
2022/04/11 02:17:05;;;;;;;7.30;4.43;;;;;;;;;;4973565;28;20481;-43
2022/04/11 02:19:32;;;;;;;5.83;4.40;;;;;;;;;;4975070;28;20458;-43
2022/04/11 02:21:58;;;;;;;6.53;4.40;;;;;;;;;;4975969;28;20468;-43
2022/04/11 02:24:24;;;;;;;6.97;4.13;;;;;;;;;;4975162;28;20431;-43
2022/04/11 02:26:50;;;;;;;6.80;4.30;;;;;;;;;;4974448;28;20851;-43
2022/04/11 02:29:16;;;;;;;9.00;4.60;;;;;;;;;;4976994;28;20909;-43
2022/04/11 02:31:42;;;;;;;5.67;4.30;;;;;;;;;;4975461;28;20433;-42
2022/04/11 02:34:08;;;;;;;8.30;4.57;;;;;;;;;;4977266;28;20744;-43
2022/04/11 02:36:34;;;;;;;5.93;4.60;;;;;;;;;;4974409;28;20440;-43
2022/04/11 02:39:00;;;;;;;6.93;4.33;;;;;;;;;;4975818;28;20677;-43
2022/04/11 02:41:26;;;;;;;6.77;4.30;;;;;;;;;;4977438;28;20452;-43
2022/04/11 02:43:52;;;;;;;7.20;4.37;;;;;;;;;;4990466;28;20554;-44
2022/04/11 02:46:18;;;;;;;5.83;4.30;;;;;;;;;;4973685;28;20882;-44
2022/04/11 02:48:44;;;;;;;4.63;3.70;;;;;;;;;;4974468;28;20554;-44
2022/04/11 02:51:10;;;;;;;6.00;4.43;;;;;;;;;;4975429;28;20728;-43
2022/04/11 02:53:37;;;;;;;5.80;4.53;;;;;;;;;;4973591;28;21152;-43
2022/04/11 02:56:03;;;;;;;5.73;3.90;;;;;;;;;;4974876;28;20554;-43
2022/04/11 02:58:29;;;;;;;8.23;4.80;;;;;;;;;;5007044;28;20607;-43
2022/04/11 03:00:55;;;;;;;5.60;3.90;;;;;;;;;;4979295;28;20463;-43
2022/04/11 03:03:21;;;;;;;6.53;4.93;;;;;;;;;;4974511;28;21222;-45
2022/04/11 03:05:48;;;;;;;6.30;4.80;;;;;;;;;;4974056;28;20948;-43
2022/04/11 03:08:14;;;;;;;6.70;4.10;;;;;;;;;;4975728;28;20526;-44
2022/04/11 03:10:40;;;;;;;6.47;4.50;;;;;;;;;;4974189;28;21276;-43
2022/04/11 03:13:06;;;;;;;5.97;3.97;;;;;;;;;;4970958;28;20871;-44
2022/04/11 03:15:32;;;;;;;9.23;4.77;;;;;;;;;;4974694;28;20890;-44
2022/04/11 03:17:58;;;;;;;8.80;4.73;;;;;;;;;;4974438;28;20435;-44
2022/04/11 03:20:24;;;;;;;7.23;4.33;;;;;;;;;;4977017;28;20526;-44
2022/04/11 03:22:50;;;;;;;7.67;4.40;;;;;;;;;;4973105;28;21279;-44
2022/04/11 03:25:16;;;;;;;8.43;4.30;;;;;;;;;;4972738;28;20428;-44
2022/04/11 03:27:43;;;;;;;7.30;4.10;;;;;;;;;;4974076;28;20435;-44
2022/04/11 03:30:09;;;;;;;6.90;3.80;;;;;;;;;;4975412;28;21019;-44
2022/04/11 03:32:35;;;;;;;9.87;4.70;;;;;;;;;;4970614;28;20443;-44
2022/04/11 03:35:01;;;;;;;9.10;4.13;;;;;;;;;;4979996;28;20546;-44
2022/04/11 03:37:27;;;;;;;10.27;3.90;;;;;;;;;;4977128;28;20909;-44
2022/04/11 03:39:53;;;;;;;10.33;3.90;;;;;;;;;;4975512;28;20541;-42
2022/04/11 03:42:20;;;;;;;7.70;4.10;;;;;;;;;;4973654;28;20787;-44
2022/04/11 03:44:46;;;;;;;8.50;4.17;;;;;;;;;;4978767;28;20434;-42
2022/04/11 03:47:12;;;;;;;10.47;4.20;;;;;;;;;;4977761;28;20517;-46
2022/04/11 03:49:38;;;;;;;8.00;4.40;;;;;;;;;;4976389;28;20438;-46
2022/04/11 03:52:04;;;;;;;8.67;4.30;;;;;;;;;;4977108;28;21227;-43
2022/04/11 03:54:30;;;;;;;8.43;4.40;;;;;;;;;;4979897;28;20540;-43
2022/04/11 03:56:56;;;;;;;9.90;5.47;;;;;;;;;;4976925;28;21026;-43
2022/04/11 03:59:22;;;;;;;10.87;4.60;;;;;;;;;;4980507;28;20586;-46
2022/04/11 04:01:48;;;;;;;11.20;5.40;;;;;;;;;;4978722;28;20439;-46
2022/04/11 04:04:15;;;;;;;10.03;5.33;;;;;;;;;;4977973;28;20432;-44
2022/04/11 04:06:41;;;;;;;10.80;5.63;;;;;;;;;;4975484;28;20807;-44
2022/04/11 04:09:07;;;;;;;11.90;5.50;;;;;;;;;;4977176;28;20706;-43
2022/04/11 04:11:33;;;;;;;10.27;5.60;;;;;;;;;;4978478;28;21028;-43
2022/04/11 04:13:59;;;;;;;17.10;7.83;;;;;;;;;;4976876;28;20424;-44
2022/04/11 04:16:26;;;;;;;13.53;6.20;;;;;;;;;;4974614;28;21023;-44
2022/04/11 04:18:52;;;;;;;16.70;7.23;;;;;;;;;;4977893;28;20431;-44
2022/04/11 04:21:18;;;;;;;11.80;6.20;;;;;;;;;;4976992;28;20450;-44
2022/04/11 04:23:45;;;;;;;8.20;5.40;;;;;;;;;;4975701;28;20807;-44
2022/04/11 04:26:11;;;;;;;15.57;7.37;;;;;;;;;;4976402;28;20734;-47
2022/04/11 04:28:37;;;;;;;7.67;5.27;;;;;;;;;;4976485;28;20451;-44
2022/04/11 04:31:04;;;;;;;14.53;7.50;;;;;;;;;;4975317;28;20611;-44
2022/04/11 04:33:31;;;;;;;15.47;7.00;;;;;;;;;;4977786;28;21659;-43
2022/04/11 04:35:57;;;;;;;11.93;6.43;;;;;;;;;;4979597;28;20864;-44
2022/04/11 04:38:23;;;;;;;11.40;6.27;;;;;;;;;;4974733;28;20498;-44
2022/04/11 04:40:49;;;;;;;10.40;5.97;;;;;;;;;;4973702;28;20837;-44
2022/04/11 04:43:15;;;;;;;12.27;7.03;;;;;;;;;;4978742;28;21022;-43
2022/04/11 04:45:41;;;;;;;13.07;7.30;;;;;;;;;;4979084;28;20434;-43
2022/04/11 04:48:07;;;;;;;15.30;7.27;;;;;;;;;;4979238;28;20450;-44
2022/04/11 04:50:33;;;;;;;14.50;7.27;;;;;;;;;;4981312;28;20546;-44
2022/04/11 04:53:00;;;;;;;11.73;7.00;;;;;;;;;;4978539;28;20916;-44
2022/04/11 04:55:26;;;;;;;8.60;5.93;;;;;;;;;;4974067;28;20438;-44
2022/04/11 04:57:52;;;;;;;10.67;6.03;;;;;;;;;;4978708;28;20440;-46
2022/04/11 05:00:18;;;;;;;14.30;7.43;;;;;;;;;;4977870;28;20451;-46
2022/04/11 05:02:44;;;;;;;14.47;6.87;;;;;;;;;;4978412;28;20780;-46
2022/04/11 05:05:11;;;;;;;13.80;7.07;;;;;;;;;;4980976;28;21022;-46
2022/04/11 05:07:37;;;;;;;16.77;7.47;;;;;;;;;;4974625;28;20510;-46
2022/04/11 05:10:08;;;;;;;16.63;7.50;;;;;;;;;;4981034;28;21241;-46
2022/04/11 05:12:41;;;;;;;15.67;7.00;;;;;;;;;;4976157;28;20420;-46
2022/04/11 05:15:08;;;;;;;14.87;7.27;;;;;;;;;;4989090;28;20546;-46
2022/04/11 05:17:34;;;;;;;14.23;7.17;;;;;;;;;;4976309;28;21000;-46
2022/04/11 05:20:00;;;;;;;9.63;6.43;;;;;;;;;;4975073;28;20451;-46
2022/04/11 05:22:26;;;;;;;12.80;7.43;;;;;;;;;;4973801;28;20559;-46
2022/04/11 05:24:52;;;;;;;11.60;6.90;;;;;;;;;;4976054;28;20420;-46
2022/04/11 05:27:18;;;;;;;12.33;6.40;;;;;;;;;;4977399;28;20587;-46
2022/04/11 05:29:44;;;;;;;14.90;6.37;;;;;;;;;;4979502;28;20541;-46
2022/04/11 05:32:10;;;;;;;9.67;6.00;;;;;;;;;;4975735;28;20435;-46
2022/04/11 05:34:37;;;;;;;10.97;6.33;;;;;;;;;;4971393;28;20452;-45
2022/04/11 05:37:03;;;;;;;19.33;7.60;;;;;;;;;;4978390;28;21414;-46
2022/04/11 05:39:30;;;;;;;12.43;6.80;;;;;;;;;;4980561;28;20427;-52
2022/04/11 05:41:56;;;;;;;14.17;7.60;;;;;;;;;;4982737;28;20430;-43
2022/04/11 05:44:22;;;;;;;13.27;7.53;;;;;;;;;;4984737;28;20418;-45
2022/04/11 05:46:52;;;;;;;12.97;7.13;;;;;;;;;;4982104;28;20415;-45
2022/04/11 05:49:22;;;;;;;12.53;6.90;;;;;;;;;;4979170;28;20796;-44
2022/04/11 05:51:48;;;;;;;12.93;7.77;;;;;;;;;;4976163;28;20424;-45
2022/04/11 05:54:14;;;;;;;10.57;6.80;;;;;;;;;;4977990;28;21258;-45
2022/04/11 05:56:40;;;;;;;12.83;7.40;;;;;;;;;;4976139;28;21014;-45
2022/04/11 05:59:08;;;;;;;12.50;6.93;;;;;;;;;;4978010;28;20831;-45
2022/04/11 06:01:34;;;;;;;9.77;6.63;;;;;;;;;;4979641;28;20490;-45
2022/04/11 06:04:00;;;;;;;11.03;5.53;;;;;;;;;;4980965;28;20883;-45
2022/04/11 06:06:26;;;;;;;10.23;5.43;;;;;;;;;;4993170;28;20737;-45
2022/04/11 06:08:52;;;;;;;12.03;6.00;;;;;;;;;;4974716;28;20886;-45
2022/04/11 06:11:18;;;;;;;9.67;5.50;;;;;;;;;;4976847;28;20423;-45
2022/04/11 06:13:45;;;;;;;10.80;6.03;;;;;;;;;;4982545;28;20411;-45
2022/04/11 06:16:12;;;;;;;11.30;5.47;;;;;;;;;;4978913;28;20741;-45
2022/04/11 06:18:38;;;;;;;9.80;5.63;;;;;;;;;;4977095;28;21463;-45
2022/04/11 06:21:04;;;;;;;12.00;5.80;;;;;;;;;;4980059;28;20485;-44
2022/04/11 06:23:30;;;;;;;8.07;5.50;;;;;;;;;;4980256;28;21207;-45
2022/04/11 06:25:57;;;;;;;10.27;5.43;;;;;;;;;;4979067;28;20911;-45
2022/04/11 06:28:23;;;;;;;8.40;5.63;;;;;;;;;;4976747;28;20423;-45
2022/04/11 06:30:49;;;;;;;11.47;6.00;;;;;;;;;;4979139;28;20415;-44
2022/04/11 06:33:15;;;;;;;6.40;5.07;;;;;;;;;;4978195;28;21034;-45
2022/04/11 06:35:41;;;;;;;12.63;5.03;;;;;;;;;;4977663;28;20538;-45
2022/04/11 06:38:08;;;;;;;7.97;5.27;;;;;;;;;;4980043;28;20832;-45
2022/04/11 06:40:35;;;;;;;8.73;5.63;;;;;;;;;;4977742;28;21031;-45
2022/04/11 06:43:01;;;;;;;7.57;4.93;;;;;;;;;;4976692;28;20434;-44
2022/04/11 06:45:27;;;;;;;9.53;4.60;;;;;;;;;;4976310;28;20497;-44
2022/04/11 06:47:53;;;;;;;8.50;4.27;;;;;;;;;;4975397;28;20438;-45
2022/04/11 06:50:19;;;;;;;8.23;4.17;;;;;;;;;;4982031;28;21010;-45
2022/04/11 06:52:46;;;;;;;6.30;4.03;;;;;;;;;;4978416;28;20908;-46
2022/04/11 06:55:12;;;;;;;6.70;3.50;;;;;;;;;;4979057;28;20424;-46
2022/04/11 06:57:38;;;;;;;11.07;3.80;;;;;;;;;;4991008;28;20416;-46
2022/04/11 07:00:04;;;;;;;5.53;3.50;;;;;;;;;;4979136;28;20540;-45
2022/04/11 07:02:31;;;;;;;8.03;3.73;;;;;;;;;;4980906;28;20411;-45
2022/04/11 07:04:57;;;;;;;8.67;4.10;;;;;;;;;;4976827;28;20856;-45
2022/04/11 07:07:23;;;;;;;7.60;3.70;;;;;;;;;;4978018;28;20775;-45
2022/04/11 07:09:49;;;;;;;11.53;4.27;;;;;;;;;;4979486;28;20415;-45
2022/04/11 07:12:15;;;;;;;13.73;4.37;;;;;;;;;;4981316;28;20855;-45
2022/04/11 07:14:41;;;;;;;5.27;3.90;;;;;;;;;;4980033;28;20511;-45
2022/04/11 07:17:07;;;;;;;8.07;3.73;;;;;;;;;;4976064;28;20412;-45
2022/04/11 07:19:33;;;;;;;7.17;3.67;;;;;;;;;;4982886;28;20515;-45
2022/04/11 07:21:59;;;;;;;4.87;3.53;;;;;;;;;;4979419;28;20536;-45
2022/04/11 07:24:25;;;;;;;6.80;3.83;;;;;;;;;;4982310;28;20788;-46
2022/04/11 07:26:51;;;;;;;7.03;3.90;;;;;;;;;;4979462;28;20426;-46
2022/04/11 07:29:17;;;;;;;4.57;3.30;;;;;;;;;;4983659;28;20649;-46
2022/04/11 07:31:43;;;;;;;7.20;3.43;;;;;;;;;;4985809;28;20568;-45
2022/04/11 07:34:10;;;;;;;5.93;3.40;;;;;;;;;;4983674;28;20719;-45
2022/04/11 07:36:36;;;;;;;6.43;3.50;;;;;;;;;;4980050;28;20983;-45
2022/04/11 07:39:02;;;;;;;6.77;3.53;;;;;;;;;;4983810;28;20354;-45
2022/04/11 07:41:28;;;;;;;9.67;3.53;;;;;;;;;;4984820;28;20716;-45
2022/04/11 07:43:54;;;;;;;5.70;4.00;;;;;;;;;;4979543;28;20647;-46
2022/04/11 07:46:20;;;;;;;7.67;3.53;;;;;;;;;;4982924;28;20537;-45
2022/04/11 07:48:46;;;;;;;7.87;4.07;;;;;;;;;;4979390;28;20559;-45
2022/04/11 07:51:13;;;;;;;5.13;3.10;;;;;;;;;;4980916;28;20290;-45
2022/04/11 07:53:39;;;;;;;7.53;3.50;;;;;;;;;;4982754;28;20181;-47
2022/04/11 07:56:05;;;;;;;7.20;3.50;;;;;;;;;;4984956;28;20270;-47
2022/04/11 07:58:31;;;;;;;5.23;3.60;;;;;;;;;;4982525;28;20709;-47
2022/04/11 08:00:57;;;;;;;5.17;4.10;;;;;;;;;;4980122;28;20189;-47
2022/04/11 08:03:23;;;;;;;6.50;3.90;;;;;;;;;;4983362;28;20565;-45
2022/04/11 08:05:49;;;;;;;5.20;3.87;;;;;;;;;;4982018;28;20226;-45
2022/04/11 08:08:15;;;;;;;5.60;3.80;;;;;;;;;;4980581;28;20259;-45
2022/04/11 08:10:42;;;;;;;9.10;3.90;;;;;;;;;;4984730;28;20185;-45
2022/04/11 08:13:08;;;;;;;7.57;3.97;;;;;;;;;;4983408;28;20380;-45
2022/04/11 08:15:34;;;;;;;6.23;4.53;;;;;;;;;;4982198;28;20173;-45
2022/04/11 08:18:01;;;;;;;7.37;3.70;;;;;;;;;;4980771;28;20636;-45
2022/04/11 08:20:27;;;;;;;5.27;3.83;;;;;;;;;;4983220;28;20418;-44
2022/04/11 08:22:53;;;;;;;5.90;4.40;;;;;;;;;;4984522;28;21072;-46
2022/04/11 08:25:20;;;;;;;4.93;4.03;;;;;;;;;;4984361;28;20526;-47
2022/04/11 08:27:46;;;;;;;5.33;3.83;;;;;;;;;;4978759;28;20181;-47
2022/04/11 08:30:13;;;;;;;6.40;4.23;;;;;;;;;;4980551;28;20246;-45
2022/04/11 08:32:45;;;;;;;6.17;4.10;;;;;;;;;;4978392;28;20177;-45
2022/04/11 08:35:12;;;;;;;7.83;4.07;;;;;;;;;;4984566;28;20698;-45
2022/04/11 08:37:40;;;;;;;5.50;3.77;;;;;;;;;;4981329;28;20513;-45
2022/04/11 08:40:10;;;;;;;7.10;4.03;;;;;;;;;;4980751;28;20609;-45
2022/04/11 08:42:38;;;;;;;5.17;4.33;;;;;;;;;;4982199;28;20173;-45
2022/04/11 08:45:04;;;;;;;5.77;4.47;;;;;;;;;;4981108;28;20990;-45
2022/04/11 08:47:30;;;;;;;6.90;4.17;;;;;;;;;;4981395;28;21380;-45
2022/04/11 08:49:56;;;;;;;6.77;4.77;;;;;;;;;;4982518;28;20184;-45
2022/04/11 08:52:22;;;;;;;6.17;4.53;;;;;;;;;;4981287;28;20172;-45
2022/04/11 08:54:48;;;;;;;5.53;4.00;;;;;;;;;;4981167;28;20748;-45
2022/04/11 08:57:14;;;;;;;6.13;4.57;;;;;;;;;;4980754;28;20291;-45
2022/04/11 08:59:41;;;;;;;6.70;4.27;;;;;;;;;;4980079;28;20610;-45
2022/04/11 09:02:10;;;;;;;7.30;4.43;;;;;;;;;;4979371;28;20862;-46
2022/04/11 09:04:52;;;;;;;5.93;4.60;;;;;;;;;;4979128;28;20200;-46
2022/04/11 09:07:18;;;;;;;5.77;4.10;;;;;;;;;;4980410;28;20443;-46
2022/04/11 09:09:44;;;;;;;5.73;4.70;;;;;;;;;;4980014;28;20180;-46
2022/04/11 09:12:14;;;;;;;7.43;4.70;;;;;;;;;;4978050;28;20184;-46
2022/04/11 09:14:40;;;;;;;7.73;4.97;;;;;;;;;;4983688;28;20201;-46
2022/04/11 09:17:06;;;;;;;5.20;4.37;;;;;;;;;;4977605;28;20251;-46
2022/04/11 09:19:33;;;;;;;7.13;4.57;;;;;;;;;;4979233;28;20249;-46
2022/04/11 09:22:00;;;;;;;6.33;5.07;;;;;;;;;;4979955;28;20204;-46
2022/04/11 09:24:29;;;;;;;7.10;4.37;;;;;;;;;;4980512;28;20173;-46
2022/04/11 09:26:55;;;;;;;6.63;4.83;;;;;;;;;;4977811;28;20176;-46
2022/04/11 09:29:23;;;;;;;8.10;5.70;;;;;;;;;;4978496;28;20288;-46
2022/04/11 09:31:50;;;;;;;8.17;5.07;;;;;;;;;;4983002;28;20302;-45
2022/04/11 09:34:20;;;;;;;9.17;5.40;;;;;;;;;;4980843;28;20208;-46
2022/04/11 09:36:51;;;;;;;7.93;5.40;;;;;;;;;;4980253;28;20208;-46
2022/04/11 09:39:24;;;;;;;6.80;4.70;;;;;;;;;;4982439;28;20177;-46
2022/04/11 09:41:50;;;;;;;7.93;4.67;;;;;;;;;;4976878;28;20197;-45
2022/04/11 09:44:24;;;;;;;7.27;5.17;;;;;;;;;;4981237;28;20172;-45
2022/04/11 09:46:51;;;;;;;7.97;5.10;;;;;;;;;;4977770;28;20702;-45
2022/04/11 09:49:18;;;;;;;8.47;5.37;;;;;;;;;;4978759;28;21202;-45
2022/04/11 09:52:02;;;;;;;6.20;4.43;;;;;;;;;;4975358;28;20445;-47
2022/04/11 09:54:29;;;;;;;6.07;5.23;;;;;;;;;;4980127;28;20177;-47
2022/04/11 09:56:55;;;;;;;5.83;4.43;;;;;;;;;;4980181;28;20283;-47
2022/04/11 09:59:23;;;;;;;8.60;5.00;;;;;;;;;;4978143;28;20184;-47
2022/04/11 10:01:51;;;;;;;8.80;5.07;;;;;;;;;;4977465;28;20854;-47
2022/04/11 10:04:18;;;;;;;6.77;5.03;;;;;;;;;;4979035;28;20176;-47
2022/04/11 10:06:45;;;;;;;6.03;4.83;;;;;;;;;;4976352;28;20176;-47
2022/04/11 10:09:12;;;;;;;5.73;4.20;;;;;;;;;;4977311;28;20708;-47
2022/04/11 10:11:38;;;;;;;8.07;4.60;;;;;;;;;;4981811;28;20185;-47
2022/04/11 10:14:05;;;;;;;7.37;4.83;;;;;;;;;;4980766;28;20180;-46
2022/04/11 10:16:31;;;;;;;7.10;4.23;;;;;;;;;;4976796;28;20180;-45
2022/04/11 10:19:01;;;;;;;6.07;3.80;;;;;;;;;;4980811;28;20181;-47
2022/04/11 10:21:27;;;;;;;5.20;4.33;;;;;;;;;;4979083;28;20643;-45
2022/04/11 10:24:14;;;;;;;4.90;4.13;;;;;;;;;;4978169;28;20732;-45
2022/04/11 10:26:45;;;;;;;5.10;4.00;;;;;;;;;;4977716;28;20169;-44
2022/04/11 10:29:30;;;;;;;4.20;3.53;;;;;;;;;;4979207;28;20180;-45
2022/04/11 10:32:05;;;;;;;4.87;3.97;;;;;;;;;;4976886;28;20181;-45
2022/04/11 10:34:47;;;;;;;5.03;3.97;;;;;;;;;;4982175;28;20360;-45
2022/04/11 10:37:14;;;;;;;6.20;4.30;;;;;;;;;;4980879;28;20200;-45
2022/04/11 10:39:43;;;;;;;5.37;4.00;;;;;;;;;;4979157;28;20277;-45
2022/04/11 10:42:10;;;;;;;7.83;3.97;;;;;;;;;;4980269;28;20231;-45
2022/04/11 10:44:40;;;;;;;3.90;3.10;;;;;;;;;;4980096;28;20165;-45
2022/04/11 10:47:09;;;;;;;5.17;2.83;;;;;;;;;;4977637;28;20740;-45
2022/04/11 10:49:50;;;;;;;5.37;3.20;;;;;;;;;;4976338;28;20984;-45
2022/04/11 10:52:32;;;;;;;5.57;4.13;;;;;;;;;;4977675;28;20469;-45
2022/04/11 10:54:58;;;;;;;6.57;4.50;;;;;;;;;;4982474;28;20176;-45
2022/04/11 10:57:34;;;;;;;5.80;4.57;;;;;;;;;;4978154;28;20767;-45
2022/04/11 11:00:03;;;;;;;5.43;3.80;;;;;;;;;;4978588;28;20549;-45
2022/04/11 11:03:22;;;;;;;4.63;3.70;;;;;;;;;;4983337;28;20378;-45
2022/04/11 11:05:43;;;;;;;6.63;4.33;;;;;;;;;;4977263;28;20187;-45
2022/04/11 11:08:13;;;;;;;5.43;4.20;;;;;;;;;;4981865;28;20751;-45
2022/04/11 11:10:41;;;;;;;4.87;3.97;;;;;;;;;;4977130;28;20629;-45
2022/04/11 11:13:35;;;;;;;6.43;3.87;;;;;;;;;;4977191;28;20177;-45
2022/04/11 11:16:01;;;;;;;5.93;3.63;;;;;;;;;;4978356;28;20165;-45
2022/04/11 11:18:28;;;;;;;4.50;3.73;;;;;;;;;;4977661;28;20243;-45
2022/04/11 11:20:56;;;;;;;5.17;3.97;;;;;;;;;;4974806;28;20207;-45
2022/04/11 11:23:27;;;;;;;6.77;4.03;;;;;;;;;;4979721;28;20762;-45
2022/04/11 11:25:54;;;;;;;4.73;3.30;;;;;;;;;;4978195;28;20176;-46
2022/04/11 11:28:20;;;;;;;4.47;3.87;;;;;;;;;;4980495;28;20315;-45
2022/04/11 11:30:46;;;;;;;8.57;3.77;;;;;;;;;;4976510;28;20705;-45
2022/04/11 11:33:14;;;;;;;5.70;3.57;;;;;;;;;;4974222;28;20800;-45
2022/04/11 11:35:47;;;;;;;4.37;3.33;;;;;;;;;;4980807;28;20186;-46
2022/04/11 11:38:14;;;;;;;4.90;2.73;;;;;;;;;;4975500;28;20184;-45
2022/04/11 11:40:51;;;;;;;6.47;4.20;;;;;;;;;;4975541;28;20398;-45
2022/04/11 11:43:18;;;;;;;7.27;3.57;;;;;;;;;;4979943;28;20161;-45
2022/04/11 11:45:44;;;;;;;3.83;3.40;;;;;;;;;;4976910;28;20623;-45
2022/04/11 11:48:21;;;;;;;4.30;2.83;;;;;;;;;;4976746;28;20165;-46
2022/04/11 11:50:47;;;;;;;3.90;3.30;;;;;;;;;;4977520;28;20739;-46
2022/04/11 11:53:13;;;;;;;5.73;3.97;;;;;;;;;;4978577;28;20429;-46
2022/04/11 11:55:52;;;;;;;5.60;3.63;;;;;;;;;;4981420;28;20223;-45
2022/04/11 11:58:18;;;;;;;4.97;3.10;;;;;;;;;;4977353;28;21202;-45
2022/04/11 12:00:47;;;;;;;6.47;3.10;;;;;;;;;;4977650;28;20248;-45
2022/04/11 12:06:00;;;;;;;4.10;2.90;;;;;;;;;;4981308;28;20728;-45
2022/04/11 12:08:30;;;;;;;4.50;2.73;;;;;;;;;;4980686;28;20990;-45
2022/04/11 12:10:58;;;;;;;4.87;2.97;;;;;;;;;;4982186;28;20185;-46
2022/04/11 12:13:25;;;;;;;3.80;2.60;;;;;;;;;;4985606;28;20537;-45
2022/04/11 12:15:52;;;;;;;3.20;2.70;;;;;;;;;;4981449;28;20192;-46
2022/04/11 12:18:18;;;;;;;4.40;3.17;;;;;;;;;;4979571;28;20621;-46
2022/04/11 12:20:44;;;;;;;4.77;2.67;;;;;;;;;;4981537;28;20319;-47
2022/04/11 12:23:14;;;;;;;3.77;2.70;;;;;;;;;;4984741;28;20521;-46
2022/04/11 12:25:44;;;;;;;3.50;2.90;;;;;;;;;;4979436;28;20729;-47
2022/04/11 12:28:13;;;;;;;3.23;2.57;;;;;;;;;;4982784;28;20209;-47
2022/04/11 12:30:45;;;;;;;4.67;2.60;;;;;;;;;;4981387;28;20181;-47
2022/04/11 12:33:32;;;;;;;3.80;2.60;;;;;;;;;;4982145;28;20222;-45
2022/04/11 12:36:26;;;;;;;4.87;2.93;;;;;;;;;;4977607;28;20283;-47
2022/04/11 12:38:54;;;;;;;3.30;2.53;;;;;;;;;;4977162;28;20192;-47
2022/04/11 12:41:23;;;;;;;3.07;2.60;;;;;;;;;;4982685;28;20197;-47
2022/04/11 12:44:10;;;;;;;2.50;2.30;;;;;;;;;;4982017;28;20220;-47
2022/04/11 12:46:36;;;;;;;3.83;2.50;;;;;;;;;;4977832;28;20662;-47
2022/04/11 12:49:04;;;;;;;4.03;3.00;;;;;;;;;;4979564;28;20642;-44
2022/04/11 12:51:30;;;;;;;3.60;3.10;;;;;;;;;;4986658;28;20177;-46
2022/04/11 12:54:04;;;;;;;4.23;2.97;;;;;;;;;;4983417;28;20213;-46
2022/04/11 12:56:34;;;;;;;3.50;2.90;;;;;;;;;;4979774;28;20340;-46
2022/04/11 12:59:00;;;;;;;7.37;3.33;;;;;;;;;;4982823;28;20596;-45
2022/04/11 13:01:46;;;;;;;3.27;2.97;;;;;;;;;;4982268;28;20628;-45
2022/04/11 13:04:12;;;;;;;6.60;3.10;;;;;;;;;;4984341;28;20180;-45
2022/04/11 13:06:38;;;;;;;5.07;3.30;;;;;;;;;;4978736;28;21587;-45
2022/04/11 13:09:04;;;;;;;3.67;2.90;;;;;;;;;;4983845;28;20174;-47
2022/04/11 13:11:30;;;;;;;4.80;3.20;;;;;;;;;;4981108;28;20539;-45
2022/04/11 13:13:57;;;;;;;5.60;3.00;;;;;;;;;;4983014;28;20315;-45
2022/04/11 13:19:08;;;;;;;4.03;3.00;;;;;;;;;;4979390;28;20191;-46
2022/04/11 13:21:34;;;;;;;3.70;2.60;;;;;;;;;;4982827;28;20208;-46
2022/04/11 13:24:00;;;;;;;3.90;3.00;;;;;;;;;;4979108;28;20236;-46
2022/04/11 13:26:26;;;;;;;5.13;3.30;;;;;;;;;;4978361;28;20432;-46
2022/04/11 13:28:53;;;;;;;5.90;3.53;;;;;;;;;;4980847;28;20181;-46
2022/04/11 13:31:19;;;;;;;5.23;2.93;;;;;;;;;;4980077;28;20204;-46
2022/04/11 13:33:45;;;;;;;3.67;3.10;;;;;;;;;;4974845;28;20610;-46
2022/04/11 13:36:11;;;;;;;5.20;3.20;;;;;;;;;;4979003;28;20734;-46
2022/04/11 13:38:37;;;;;;;4.93;2.97;;;;;;;;;;4979557;28;20403;-46
2022/04/11 13:41:04;;;;;;;5.20;3.13;;;;;;;;;;4976482;28;20911;-46
2022/04/11 13:43:30;;;;;;;5.60;3.30;;;;;;;;;;4979509;28;20173;-46
2022/04/11 13:45:56;;;;;;;4.17;3.10;;;;;;;;;;4980522;28;20181;-44
2022/04/11 13:48:23;;;;;;;4.27;3.70;;;;;;;;;;4980696;28;20174;-44
2022/04/11 13:50:50;;;;;;;4.03;3.63;;;;;;;;;;4978200;28;20295;-45
2022/04/11 13:53:16;;;;;;;4.20;3.57;;;;;;;;;;4982018;28;20185;-45
2022/04/11 13:55:42;;;;;;;4.60;3.30;;;;;;;;;;4982344;28;21001;-45
2022/04/11 13:58:08;;;;;;;5.73;3.50;;;;;;;;;;4981866;28;20610;-44
2022/04/11 14:00:39;;;;;;;3.80;3.00;;;;;;;;;;4978146;28;20200;-45
2022/04/11 14:03:06;;;;;;;4.67;3.20;;;;;;;;;;4981592;28;20653;-45
2022/04/11 14:05:32;;;;;;;4.70;3.73;;;;;;;;;;4981920;28;20721;-44
2022/04/11 14:07:58;;;;;;;4.67;3.87;;;;;;;;;;4978739;28;20204;-45
2022/04/11 14:10:24;;;;;;;4.50;3.43;;;;;;;;;;4978570;28;20181;-45
2022/04/11 14:12:50;;;;;;;5.60;4.10;;;;;;;;;;4977824;28;20184;-45
2022/04/11 14:15:16;;;;;;;5.00;3.77;;;;;;;;;;4979861;28;21117;-45
2022/04/11 14:17:42;;;;;;;5.00;3.90;;;;;;;;;;4979328;28;20293;-45
2022/04/11 14:20:08;;;;;;;3.67;3.37;;;;;;;;;;4977278;28;20197;-45
2022/04/11 14:22:35;;;;;;;6.40;3.60;;;;;;;;;;4977196;28;20715;-45
2022/04/11 14:25:01;;;;;;;5.97;3.70;;;;;;;;;;4980482;28;20173;-45
2022/04/11 14:27:27;;;;;;;4.60;3.60;;;;;;;;;;4978864;28;20185;-45
2022/04/11 14:29:53;;;;;;;4.37;3.40;;;;;;;;;;4977602;28;20179;-45
2022/04/11 14:32:19;;;;;;;3.77;3.30;;;;;;;;;;4973102;28;20611;-45
2022/04/11 14:34:45;;;;;;;5.63;4.03;;;;;;;;;;4980767;28;20969;-44
2022/04/11 14:37:11;;;;;;;5.23;3.70;;;;;;;;;;4980918;28;20189;-45
2022/04/11 14:39:39;;;;;;;5.90;3.80;;;;;;;;;;4978868;28;20637;-43
2022/04/11 14:42:05;;;;;;;4.93;3.67;;;;;;;;;;4978257;28;20202;-45
2022/04/11 14:44:31;;;;;;;5.23;4.00;;;;;;;;;;4981619;28;20176;-45
2022/04/11 14:46:57;;;;;;;5.20;3.90;;;;;;;;;;4981706;28;20561;-44